sensor_id;sensor_type;location;lat;lon;timestamp;P1;durP1;ratioP1;P2;durP2;ratioP2
33327;SDS011;19692;52.998;9.116;2022-09-12T00:00:17;5.40;;;4.13;;
33327;SDS011;19692;52.998;9.116;2022-09-12T00:02:43;4.43;;;4.10;;
33327;SDS011;19692;52.998;9.116;2022-09-12T00:05:08;5.03;;;4.53;;
33327;SDS011;19692;52.998;9.116;2022-09-12T00:07:34;6.20;;;4.23;;
33327;SDS011;19692;52.998;9.116;2022-09-12T00:10:00;4.63;;;4.23;;
33327;SDS011;19692;52.998;9.116;2022-09-12T00:12:26;4.73;;;4.33;;
33327;SDS011;19692;52.998;9.116;2022-09-12T00:14:51;4.30;;;4.00;;
33327;SDS011;19692;52.998;9.116;2022-09-12T00:17:17;4.20;;;3.80;;
33327;SDS011;19692;52.998;9.116;2022-09-12T00:19:43;4.93;;;4.53;;
33327;SDS011;19692;52.998;9.116;2022-09-12T00:22:09;4.60;;;4.30;;
33327;SDS011;19692;52.998;9.116;2022-09-12T00:24:34;4.87;;;4.30;;
33327;SDS011;19692;52.998;9.116;2022-09-12T00:27:00;4.43;;;4.13;;
33327;SDS011;19692;52.998;9.116;2022-09-12T00:29:26;5.23;;;4.73;;
33327;SDS011;19692;52.998;9.116;2022-09-12T00:31:52;5.80;;;4.57;;
33327;SDS011;19692;52.998;9.116;2022-09-12T00:34:17;4.70;;;4.30;;
33327;SDS011;19692;52.998;9.116;2022-09-12T00:36:43;4.90;;;4.50;;
33327;SDS011;19692;52.998;9.116;2022-09-12T00:39:09;5.20;;;4.70;;
33327;SDS011;19692;52.998;9.116;2022-09-12T00:41:40;5.27;;;4.87;;
33327;SDS011;19692;52.998;9.116;2022-09-12T00:49:26;4.40;;;3.97;;
33327;SDS011;19692;52.998;9.116;2022-09-12T00:51:59;5.57;;;4.97;;
33327;SDS011;19692;52.998;9.116;2022-09-12T00:54:33;5.20;;;4.50;;
33327;SDS011;19692;52.998;9.116;2022-09-12T00:57:09;4.97;;;4.57;;
33327;SDS011;19692;52.998;9.116;2022-09-12T00:59:40;4.60;;;4.30;;
33327;SDS011;19692;52.998;9.116;2022-09-12T01:02:18;5.20;;;4.60;;
33327;SDS011;19692;52.998;9.116;2022-09-12T01:04:44;5.20;;;4.70;;
33327;SDS011;19692;52.998;9.116;2022-09-12T01:07:11;6.17;;;4.47;;
33327;SDS011;19692;52.998;9.116;2022-09-12T01:09:38;4.67;;;4.27;;
33327;SDS011;19692;52.998;9.116;2022-09-12T01:12:06;4.47;;;4.17;;
33327;SDS011;19692;52.998;9.116;2022-09-12T01:14:37;4.37;;;3.97;;
33327;SDS011;19692;52.998;9.116;2022-09-12T01:17:04;4.33;;;3.93;;
33327;SDS011;19692;52.998;9.116;2022-09-12T01:29:18;4.67;;;4.27;;
33327;SDS011;19692;52.998;9.116;2022-09-12T01:32:16;4.60;;;4.20;;
33327;SDS011;19692;52.998;9.116;2022-09-12T01:35:02;4.60;;;4.30;;
33327;SDS011;19692;52.998;9.116;2022-09-12T01:43:28;6.73;;;4.60;;
33327;SDS011;19692;52.998;9.116;2022-09-12T01:46:42;4.87;;;4.47;;
33327;SDS011;19692;52.998;9.116;2022-09-12T01:49:28;6.20;;;4.73;;
33327;SDS011;19692;52.998;9.116;2022-09-12T01:52:25;5.10;;;4.70;;
33327;SDS011;19692;52.998;9.116;2022-09-12T01:55:05;5.90;;;5.40;;
33327;SDS011;19692;52.998;9.116;2022-09-12T01:57:46;5.37;;;4.97;;
33327;SDS011;19692;52.998;9.116;2022-09-12T02:00:18;5.27;;;4.87;;
33327;SDS011;19692;52.998;9.116;2022-09-12T02:08:14;6.17;;;5.30;;
33327;SDS011;19692;52.998;9.116;2022-09-12T02:10:46;5.97;;;5.37;;
33327;SDS011;19692;52.998;9.116;2022-09-12T02:13:25;5.13;;;4.73;;
33327;SDS011;19692;52.998;9.116;2022-09-12T02:16:05;4.90;;;4.50;;
33327;SDS011;19692;52.998;9.116;2022-09-12T02:18:44;5.20;;;4.80;;
33327;SDS011;19692;52.998;9.116;2022-09-12T02:21:17;5.30;;;4.90;;
33327;SDS011;19692;52.998;9.116;2022-09-12T02:23:47;6.23;;;5.63;;
33327;SDS011;19692;52.998;9.116;2022-09-12T02:26:21;6.07;;;5.53;;
33327;SDS011;19692;52.998;9.116;2022-09-12T02:28:54;6.07;;;5.67;;
33327;SDS011;19692;52.998;9.116;2022-09-12T02:31:35;6.40;;;5.80;;
33327;SDS011;19692;52.998;9.116;2022-09-12T02:40:20;5.43;;;4.93;;
33327;SDS011;19692;52.998;9.116;2022-09-12T02:42:47;6.13;;;5.63;;
33327;SDS011;19692;52.998;9.116;2022-09-12T02:45:13;5.27;;;4.83;;
33327;SDS011;19692;52.998;9.116;2022-09-12T02:47:42;6.27;;;5.77;;
33327;SDS011;19692;52.998;9.116;2022-09-12T02:50:15;6.37;;;5.87;;
33327;SDS011;19692;52.998;9.116;2022-09-12T02:52:41;6.63;;;5.87;;
33327;SDS011;19692;52.998;9.116;2022-09-12T02:55:08;6.10;;;5.57;;
33327;SDS011;19692;52.998;9.116;2022-09-12T02:57:37;6.57;;;5.97;;
33327;SDS011;19692;52.998;9.116;2022-09-12T03:00:03;6.30;;;5.80;;
33327;SDS011;19692;52.998;9.116;2022-09-12T03:05:22;7.27;;;6.57;;
33327;SDS011;19692;52.998;9.116;2022-09-12T03:16:28;6.50;;;6.00;;
33327;SDS011;19692;52.998;9.116;2022-09-12T03:22:13;6.13;;;5.63;;
33327;SDS011;19692;52.998;9.116;2022-09-12T03:27:35;6.17;;;5.67;;
33327;SDS011;19692;52.998;9.116;2022-09-12T03:30:08;6.03;;;5.53;;
33327;SDS011;19692;52.998;9.116;2022-09-12T03:32:43;6.00;;;5.50;;
33327;SDS011;19692;52.998;9.116;2022-09-12T03:35:13;6.10;;;5.50;;
33327;SDS011;19692;52.998;9.116;2022-09-12T03:37:40;6.73;;;5.40;;
33327;SDS011;19692;52.998;9.116;2022-09-12T03:40:06;6.97;;;6.30;;
33327;SDS011;19692;52.998;9.116;2022-09-12T03:42:36;6.50;;;5.97;;
33327;SDS011;19692;52.998;9.116;2022-09-12T03:45:02;7.40;;;6.70;;
33327;SDS011;19692;52.998;9.116;2022-09-12T03:47:30;7.07;;;6.43;;
33327;SDS011;19692;52.998;9.116;2022-09-12T03:49:56;6.70;;;6.10;;
33327;SDS011;19692;52.998;9.116;2022-09-12T03:52:22;7.33;;;6.63;;
33327;SDS011;19692;52.998;9.116;2022-09-12T03:54:48;7.03;;;6.33;;
33327;SDS011;19692;52.998;9.116;2022-09-12T03:57:13;6.90;;;6.20;;
33327;SDS011;19692;52.998;9.116;2022-09-12T03:59:39;7.03;;;6.43;;
33327;SDS011;19692;52.998;9.116;2022-09-12T04:02:05;6.20;;;5.70;;
33327;SDS011;19692;52.998;9.116;2022-09-12T04:04:31;5.47;;;4.97;;
33327;SDS011;19692;52.998;9.116;2022-09-12T04:06:57;5.70;;;5.10;;
33327;SDS011;19692;52.998;9.116;2022-09-12T04:09:22;5.40;;;4.90;;
33327;SDS011;19692;52.998;9.116;2022-09-12T04:11:48;6.23;;;5.37;;
33327;SDS011;19692;52.998;9.116;2022-09-12T04:14:14;5.77;;;5.20;;
33327;SDS011;19692;52.998;9.116;2022-09-12T04:16:40;5.93;;;5.43;;
33327;SDS011;19692;52.998;9.116;2022-09-12T04:19:05;5.50;;;5.00;;
33327;SDS011;19692;52.998;9.116;2022-09-12T04:21:31;5.40;;;4.83;;
33327;SDS011;19692;52.998;9.116;2022-09-12T04:23:57;6.20;;;5.33;;
33327;SDS011;19692;52.998;9.116;2022-09-12T04:26:23;5.90;;;5.40;;
33327;SDS011;19692;52.998;9.116;2022-09-12T04:28:52;5.73;;;5.20;;
33327;SDS011;19692;52.998;9.116;2022-09-12T04:31:19;7.93;;;7.13;;
33327;SDS011;19692;52.998;9.116;2022-09-12T04:33:46;6.77;;;5.23;;
33327;SDS011;19692;52.998;9.116;2022-09-12T04:36:17;7.80;;;6.37;;
33327;SDS011;19692;52.998;9.116;2022-09-12T04:38:44;7.30;;;5.37;;
33327;SDS011;19692;52.998;9.116;2022-09-12T04:41:15;6.70;;;5.57;;
33327;SDS011;19692;52.998;9.116;2022-09-12T04:43:57;7.37;;;5.90;;
33327;SDS011;19692;52.998;9.116;2022-09-12T04:46:29;7.77;;;5.93;;
33327;SDS011;19692;52.998;9.116;2022-09-12T04:49:02;6.60;;;6.10;;
33327;SDS011;19692;52.998;9.116;2022-09-12T04:51:32;6.17;;;5.67;;
33327;SDS011;19692;52.998;9.116;2022-09-12T04:54:01;7.23;;;6.57;;
33327;SDS011;19692;52.998;9.116;2022-09-12T04:56:29;6.60;;;6.10;;
33327;SDS011;19692;52.998;9.116;2022-09-12T04:58:56;7.30;;;6.70;;
33327;SDS011;19692;52.998;9.116;2022-09-12T05:01:24;7.03;;;6.33;;
33327;SDS011;19692;52.998;9.116;2022-09-12T05:03:52;7.30;;;6.70;;
33327;SDS011;19692;52.998;9.116;2022-09-12T05:06:26;8.17;;;6.90;;
33327;SDS011;19692;52.998;9.116;2022-09-12T05:08:58;6.53;;;5.93;;
33327;SDS011;19692;52.998;9.116;2022-09-12T05:11:27;6.40;;;5.80;;
33327;SDS011;19692;52.998;9.116;2022-09-12T05:14:02;6.63;;;5.97;;
33327;SDS011;19692;52.998;9.116;2022-09-12T05:16:28;6.27;;;5.67;;
33327;SDS011;19692;52.998;9.116;2022-09-12T05:18:55;6.90;;;6.30;;
33327;SDS011;19692;52.998;9.116;2022-09-12T05:21:23;7.10;;;6.50;;
33327;SDS011;19692;52.998;9.116;2022-09-12T05:23:50;12.93;;;10.57;;
33327;SDS011;19692;52.998;9.116;2022-09-12T05:26:17;10.50;;;9.40;;
33327;SDS011;19692;52.998;9.116;2022-09-12T05:28:44;11.43;;;10.27;;
33327;SDS011;19692;52.998;9.116;2022-09-12T05:31:14;11.87;;;10.77;;
33327;SDS011;19692;52.998;9.116;2022-09-12T05:33:46;14.30;;;12.87;;
33327;SDS011;19692;52.998;9.116;2022-09-12T05:36:18;15.27;;;13.77;;
33327;SDS011;19692;52.998;9.116;2022-09-12T05:38:53;13.40;;;12.20;;
33327;SDS011;19692;52.998;9.116;2022-09-12T05:41:20;16.10;;;14.60;;
33327;SDS011;19692;52.998;9.116;2022-09-12T05:43:54;15.57;;;14.07;;
33327;SDS011;19692;52.998;9.116;2022-09-12T05:46:23;14.80;;;13.27;;
33327;SDS011;19692;52.998;9.116;2022-09-12T05:48:52;15.93;;;14.43;;
33327;SDS011;19692;52.998;9.116;2022-09-12T05:51:20;16.50;;;14.90;;
33327;SDS011;19692;52.998;9.116;2022-09-12T05:53:54;16.50;;;14.90;;
33327;SDS011;19692;52.998;9.116;2022-09-12T05:56:23;16.87;;;15.20;;
33327;SDS011;19692;52.998;9.116;2022-09-12T05:58:55;16.27;;;14.77;;
33327;SDS011;19692;52.998;9.116;2022-09-12T06:01:25;15.57;;;14.07;;
33327;SDS011;19692;52.998;9.116;2022-09-12T06:03:53;16.63;;;15.03;;
33327;SDS011;19692;52.998;9.116;2022-09-12T06:06:22;16.90;;;15.30;;
33327;SDS011;19692;52.998;9.116;2022-09-12T06:08:50;17.10;;;15.47;;
33327;SDS011;19692;52.998;9.116;2022-09-12T06:11:19;16.07;;;14.57;;
33327;SDS011;19692;52.998;9.116;2022-09-12T06:13:49;16.97;;;15.17;;
33327;SDS011;19692;52.998;9.116;2022-09-12T06:16:17;17.27;;;15.50;;
33327;SDS011;19692;52.998;9.116;2022-09-12T06:18:45;16.27;;;14.67;;
33327;SDS011;19692;52.998;9.116;2022-09-12T06:21:23;16.90;;;15.23;;
33327;SDS011;19692;52.998;9.116;2022-09-12T06:23:52;16.70;;;15.10;;
33327;SDS011;19692;52.998;9.116;2022-09-12T06:26:19;16.10;;;14.57;;
33327;SDS011;19692;52.998;9.116;2022-09-12T06:28:47;17.17;;;15.47;;
33327;SDS011;19692;52.998;9.116;2022-09-12T06:31:15;17.07;;;15.37;;
33327;SDS011;19692;52.998;9.116;2022-09-12T06:33:45;16.47;;;14.80;;
33327;SDS011;19692;52.998;9.116;2022-09-12T06:36:21;16.87;;;15.20;;
33327;SDS011;19692;52.998;9.116;2022-09-12T06:38:59;17.63;;;15.83;;
33327;SDS011;19692;52.998;9.116;2022-09-12T06:41:28;18.60;;;15.47;;
33327;SDS011;19692;52.998;9.116;2022-09-12T06:43:55;18.17;;;15.60;;
33327;SDS011;19692;52.998;9.116;2022-09-12T06:46:22;16.97;;;15.27;;
33327;SDS011;19692;52.998;9.116;2022-09-12T06:48:48;17.70;;;15.90;;
33327;SDS011;19692;52.998;9.116;2022-09-12T06:51:15;17.60;;;15.90;;
33327;SDS011;19692;52.998;9.116;2022-09-12T06:53:44;19.40;;;16.13;;
33327;SDS011;19692;52.998;9.116;2022-09-12T06:56:18;18.00;;;16.10;;
33327;SDS011;19692;52.998;9.116;2022-09-12T06:58:46;18.63;;;16.63;;
33327;SDS011;19692;52.998;9.116;2022-09-12T07:01:14;20.33;;;17.67;;
33327;SDS011;19692;52.998;9.116;2022-09-12T07:03:47;18.27;;;16.47;;
33327;SDS011;19692;52.998;9.116;2022-09-12T07:06:25;18.13;;;16.30;;
33327;SDS011;19692;52.998;9.116;2022-09-12T07:08:59;18.87;;;16.87;;
33327;SDS011;19692;52.998;9.116;2022-09-12T07:11:28;20.07;;;17.60;;
33327;SDS011;19692;52.998;9.116;2022-09-12T07:13:57;21.50;;;19.30;;
33327;SDS011;19692;52.998;9.116;2022-09-12T07:16:25;23.80;;;20.30;;
33327;SDS011;19692;52.998;9.116;2022-09-12T07:18:53;23.77;;;21.27;;
33327;SDS011;19692;52.998;9.116;2022-09-12T07:21:21;22.40;;;19.87;;
33327;SDS011;19692;52.998;9.116;2022-09-12T07:23:47;22.07;;;19.67;;
33327;SDS011;19692;52.998;9.116;2022-09-12T07:26:15;22.80;;;19.87;;
33327;SDS011;19692;52.998;9.116;2022-09-12T07:28:42;24.13;;;19.80;;
33327;SDS011;19692;52.998;9.116;2022-09-12T07:33:36;22.77;;;20.37;;
33327;SDS011;19692;52.998;9.116;2022-09-12T07:36:05;22.70;;;19.93;;
33327;SDS011;19692;52.998;9.116;2022-09-12T07:38:35;23.93;;;20.40;;
33327;SDS011;19692;52.998;9.116;2022-09-12T07:41:35;26.33;;;20.53;;
33327;SDS011;19692;52.998;9.116;2022-09-12T07:43:57;23.77;;;20.07;;
33327;SDS011;19692;52.998;9.116;2022-09-12T07:46:25;23.40;;;19.70;;
33327;SDS011;19692;52.998;9.116;2022-09-12T07:48:54;22.67;;;19.67;;
33327;SDS011;19692;52.998;9.116;2022-09-12T07:51:22;25.83;;;20.90;;
33327;SDS011;19692;52.998;9.116;2022-09-12T07:53:49;24.77;;;19.73;;
33327;SDS011;19692;52.998;9.116;2022-09-12T07:56:16;23.50;;;20.47;;
33327;SDS011;19692;52.998;9.116;2022-09-12T07:58:43;23.17;;;20.77;;
33327;SDS011;19692;52.998;9.116;2022-09-12T08:01:10;23.97;;;19.93;;
33327;SDS011;19692;52.998;9.116;2022-09-12T08:03:39;23.07;;;19.50;;
33327;SDS011;19692;52.998;9.116;2022-09-12T08:06:11;24.00;;;20.47;;
33327;SDS011;19692;52.998;9.116;2022-09-12T08:08:41;22.37;;;19.63;;
33327;SDS011;19692;52.998;9.116;2022-09-12T08:11:08;22.67;;;20.27;;
33327;SDS011;19692;52.998;9.116;2022-09-12T08:13:37;22.23;;;19.93;;
33327;SDS011;19692;52.998;9.116;2022-09-12T08:16:05;20.70;;;17.97;;
33327;SDS011;19692;52.998;9.116;2022-09-12T08:18:36;20.90;;;18.53;;
33327;SDS011;19692;52.998;9.116;2022-09-12T08:21:04;20.67;;;18.47;;
33327;SDS011;19692;52.998;9.116;2022-09-12T08:23:42;21.90;;;19.50;;
33327;SDS011;19692;52.998;9.116;2022-09-12T08:26:09;20.47;;;18.37;;
33327;SDS011;19692;52.998;9.116;2022-09-12T08:28:37;23.83;;;20.83;;
33327;SDS011;19692;52.998;9.116;2022-09-12T08:31:06;22.47;;;20.10;;
33327;SDS011;19692;52.998;9.116;2022-09-12T08:33:35;20.90;;;18.73;;
33327;SDS011;19692;52.998;9.116;2022-09-12T08:36:05;21.90;;;19.57;;
33327;SDS011;19692;52.998;9.116;2022-09-12T08:38:43;21.77;;;19.47;;
33327;SDS011;19692;52.998;9.116;2022-09-12T08:49:36;26.33;;;21.03;;
33327;SDS011;19692;52.998;9.116;2022-09-12T08:54:47;23.57;;;21.07;;
33327;SDS011;19692;52.998;9.116;2022-09-12T08:57:14;24.13;;;21.63;;
33327;SDS011;19692;52.998;9.116;2022-09-12T08:59:41;25.10;;;22.40;;
33327;SDS011;19692;52.998;9.116;2022-09-12T09:05:44;24.00;;;21.40;;
33327;SDS011;19692;52.998;9.116;2022-09-12T09:08:22;23.37;;;20.87;;
33327;SDS011;19692;52.998;9.116;2022-09-12T09:11:04;24.63;;;20.80;;
33327;SDS011;19692;52.998;9.116;2022-09-12T09:17:02;25.13;;;22.47;;
33327;SDS011;19692;52.998;9.116;2022-09-12T09:19:37;25.93;;;23.13;;
33327;SDS011;19692;52.998;9.116;2022-09-12T09:22:13;24.40;;;21.73;;
33327;SDS011;19692;52.998;9.116;2022-09-12T09:24:48;25.77;;;21.90;;
33327;SDS011;19692;52.998;9.116;2022-09-12T09:30:19;23.73;;;20.40;;
33327;SDS011;19692;52.998;9.116;2022-09-12T09:32:47;23.07;;;20.50;;
33327;SDS011;19692;52.998;9.116;2022-09-12T09:38:13;22.40;;;20.00;;
33327;SDS011;19692;52.998;9.116;2022-09-12T09:43:43;22.57;;;20.20;;
33327;SDS011;19692;52.998;9.116;2022-09-12T09:46:09;23.57;;;19.63;;
33327;SDS011;19692;52.998;9.116;2022-09-12T09:48:39;21.70;;;19.40;;
33327;SDS011;19692;52.998;9.116;2022-09-12T09:51:10;21.73;;;18.13;;
33327;SDS011;19692;52.998;9.116;2022-09-12T09:53:40;22.17;;;19.77;;
33327;SDS011;19692;52.998;9.116;2022-09-12T09:56:24;22.07;;;19.67;;
33327;SDS011;19692;52.998;9.116;2022-09-12T10:01:52;20.63;;;17.73;;
33327;SDS011;19692;52.998;9.116;2022-09-12T10:04:39;21.13;;;18.83;;
33327;SDS011;19692;52.998;9.116;2022-09-12T10:07:18;19.80;;;17.77;;
33327;SDS011;19692;52.998;9.116;2022-09-12T10:10:06;22.53;;;18.10;;
33327;SDS011;19692;52.998;9.116;2022-09-12T10:12:42;20.43;;;17.33;;
33327;SDS011;19692;52.998;9.116;2022-09-12T10:17:51;19.07;;;16.90;;
33327;SDS011;19692;52.998;9.116;2022-09-12T10:22:59;17.77;;;14.47;;
33327;SDS011;19692;52.998;9.116;2022-09-12T10:25:55;17.97;;;16.07;;
33327;SDS011;19692;52.998;9.116;2022-09-12T10:28:36;18.93;;;15.37;;
33327;SDS011;19692;52.998;9.116;2022-09-12T10:31:08;19.07;;;16.43;;
33327;SDS011;19692;52.998;9.116;2022-09-12T10:33:47;20.60;;;15.90;;
33327;SDS011;19692;52.998;9.116;2022-09-12T10:36:18;15.93;;;14.30;;
33327;SDS011;19692;52.998;9.116;2022-09-12T10:38:52;16.37;;;14.63;;
33327;SDS011;19692;52.998;9.116;2022-09-12T10:41:20;16.27;;;14.33;;
33327;SDS011;19692;52.998;9.116;2022-09-12T10:43:46;15.90;;;14.23;;
33327;SDS011;19692;52.998;9.116;2022-09-12T10:48:42;16.40;;;14.63;;
33327;SDS011;19692;52.998;9.116;2022-09-12T10:53:54;16.63;;;13.90;;
33327;SDS011;19692;52.998;9.116;2022-09-12T10:56:25;15.83;;;13.80;;
33327;SDS011;19692;52.998;9.116;2022-09-12T11:01:58;15.17;;;13.53;;
33327;SDS011;19692;52.998;9.116;2022-09-12T11:07:25;14.63;;;12.40;;
33327;SDS011;19692;52.998;9.116;2022-09-12T11:13:24;16.17;;;12.80;;
33327;SDS011;19692;52.998;9.116;2022-09-12T11:28:29;7.67;;;5.30;;
33327;SDS011;19692;52.998;9.116;2022-09-12T11:31:50;6.67;;;5.27;;
33327;SDS011;19692;52.998;9.116;2022-09-12T11:37:27;6.10;;;5.37;;
33327;SDS011;19692;52.998;9.116;2022-09-12T11:46:07;7.93;;;6.03;;
33327;SDS011;19692;52.998;9.116;2022-09-12T11:48:52;6.20;;;5.50;;
33327;SDS011;19692;52.998;9.116;2022-09-12T11:51:26;8.13;;;5.60;;
33327;SDS011;19692;52.998;9.116;2022-09-12T11:54:27;5.97;;;5.37;;
33327;SDS011;19692;52.998;9.116;2022-09-12T12:02:59;5.93;;;5.33;;
33327;SDS011;19692;52.998;9.116;2022-09-12T12:08:17;4.90;;;4.43;;
33327;SDS011;19692;52.998;9.116;2022-09-12T12:16:12;4.63;;;4.23;;
33327;SDS011;19692;52.998;9.116;2022-09-12T12:18:51;5.03;;;4.50;;
33327;SDS011;19692;52.998;9.116;2022-09-12T12:21:34;6.43;;;4.47;;
33327;SDS011;19692;52.998;9.116;2022-09-12T12:34:41;4.93;;;4.33;;
33327;SDS011;19692;52.998;9.116;2022-09-12T12:42:57;4.83;;;3.80;;
33327;SDS011;19692;52.998;9.116;2022-09-12T12:47:33;4.37;;;3.37;;
33327;SDS011;19692;52.998;9.116;2022-09-12T12:50:23;4.77;;;3.70;;
33327;SDS011;19692;52.998;9.116;2022-09-12T12:52:55;4.63;;;4.10;;
33327;SDS011;19692;52.998;9.116;2022-09-12T12:58:06;3.77;;;3.37;;
33327;SDS011;19692;52.998;9.116;2022-09-12T13:01:15;5.40;;;3.40;;
33327;SDS011;19692;52.998;9.116;2022-09-12T13:04:02;4.97;;;3.20;;
33327;SDS011;19692;52.998;9.116;2022-09-12T13:06:37;4.03;;;3.30;;
33327;SDS011;19692;52.998;9.116;2022-09-12T13:12:07;5.03;;;3.60;;
33327;SDS011;19692;52.998;9.116;2022-09-12T13:17:07;3.57;;;3.27;;
33327;SDS011;19692;52.998;9.116;2022-09-12T13:22:46;3.43;;;3.10;;
33327;SDS011;19692;52.998;9.116;2022-09-12T13:27:59;3.10;;;2.77;;
33327;SDS011;19692;52.998;9.116;2022-09-12T13:30:36;3.47;;;2.63;;
33327;SDS011;19692;52.998;9.116;2022-09-12T13:33:25;3.57;;;2.50;;
33327;SDS011;19692;52.998;9.116;2022-09-12T13:39:24;2.63;;;2.43;;
33327;SDS011;19692;52.998;9.116;2022-09-12T13:45:02;3.57;;;2.90;;
33327;SDS011;19692;52.998;9.116;2022-09-12T13:51:33;3.80;;;3.40;;
33327;SDS011;19692;52.998;9.116;2022-09-12T13:54:46;4.23;;;2.90;;
33327;SDS011;19692;52.998;9.116;2022-09-12T13:57:35;4.10;;;3.33;;
33327;SDS011;19692;52.998;9.116;2022-09-12T14:00:11;3.90;;;2.90;;
33327;SDS011;19692;52.998;9.116;2022-09-12T14:02:43;3.10;;;2.87;;
33327;SDS011;19692;52.998;9.116;2022-09-12T14:05:17;3.43;;;3.13;;
33327;SDS011;19692;52.998;9.116;2022-09-12T14:07:57;3.40;;;2.73;;
33327;SDS011;19692;52.998;9.116;2022-09-12T14:10:35;4.03;;;2.50;;
33327;SDS011;19692;52.998;9.116;2022-09-12T14:13:08;2.67;;;2.47;;
33327;SDS011;19692;52.998;9.116;2022-09-12T14:15:37;5.00;;;2.57;;
33327;SDS011;19692;52.998;9.116;2022-09-12T14:18:04;5.77;;;2.37;;
33327;SDS011;19692;52.998;9.116;2022-09-12T14:20:36;3.87;;;2.70;;
33327;SDS011;19692;52.998;9.116;2022-09-12T14:25:54;4.13;;;2.60;;
33327;SDS011;19692;52.998;9.116;2022-09-12T14:28:24;4.93;;;2.70;;
33327;SDS011;19692;52.998;9.116;2022-09-12T14:31:02;5.23;;;3.30;;
33327;SDS011;19692;52.998;9.116;2022-09-12T14:34:10;3.97;;;2.53;;
33327;SDS011;19692;52.998;9.116;2022-09-12T14:36:48;3.30;;;3.00;;
33327;SDS011;19692;52.998;9.116;2022-09-12T14:42:12;5.53;;;2.90;;
33327;SDS011;19692;52.998;9.116;2022-09-12T14:44:43;3.30;;;3.00;;
33327;SDS011;19692;52.998;9.116;2022-09-12T14:47:23;2.97;;;2.70;;
33327;SDS011;19692;52.998;9.116;2022-09-12T14:49:51;3.50;;;3.20;;
33327;SDS011;19692;52.998;9.116;2022-09-12T14:52:33;4.97;;;3.00;;
33327;SDS011;19692;52.998;9.116;2022-09-12T14:55:17;3.90;;;3.17;;
33327;SDS011;19692;52.998;9.116;2022-09-12T14:58:11;4.03;;;2.80;;
33327;SDS011;19692;52.998;9.116;2022-09-12T15:00:54;4.13;;;3.27;;
33327;SDS011;19692;52.998;9.116;2022-09-12T15:03:33;5.37;;;2.87;;
33327;SDS011;19692;52.998;9.116;2022-09-12T15:08:56;5.00;;;3.40;;
33327;SDS011;19692;52.998;9.116;2022-09-12T15:11:24;3.83;;;3.53;;
33327;SDS011;19692;52.998;9.116;2022-09-12T15:13:51;3.43;;;2.70;;
33327;SDS011;19692;52.998;9.116;2022-09-12T15:16:17;4.97;;;2.60;;
33327;SDS011;19692;52.998;9.116;2022-09-12T15:18:42;3.37;;;3.07;;
33327;SDS011;19692;52.998;9.116;2022-09-12T15:21:10;3.30;;;2.73;;
33327;SDS011;19692;52.998;9.116;2022-09-12T15:26:12;3.23;;;2.77;;
33327;SDS011;19692;52.998;9.116;2022-09-12T15:28:48;3.30;;;2.87;;
33327;SDS011;19692;52.998;9.116;2022-09-12T15:31:21;3.57;;;2.77;;
33327;SDS011;19692;52.998;9.116;2022-09-12T15:33:53;3.00;;;2.70;;
33327;SDS011;19692;52.998;9.116;2022-09-12T15:36:20;3.40;;;2.87;;
33327;SDS011;19692;52.998;9.116;2022-09-12T15:38:47;3.60;;;2.80;;
33327;SDS011;19692;52.998;9.116;2022-09-12T15:41:15;2.83;;;2.63;;
33327;SDS011;19692;52.998;9.116;2022-09-12T15:43:55;3.33;;;2.60;;
33327;SDS011;19692;52.998;9.116;2022-09-12T15:46:21;3.03;;;2.67;;
33327;SDS011;19692;52.998;9.116;2022-09-12T15:48:46;3.63;;;3.33;;
33327;SDS011;19692;52.998;9.116;2022-09-12T15:51:13;3.37;;;2.70;;
33327;SDS011;19692;52.998;9.116;2022-09-12T15:53:45;2.83;;;2.60;;
33327;SDS011;19692;52.998;9.116;2022-09-12T15:56:13;2.77;;;2.57;;
33327;SDS011;19692;52.998;9.116;2022-09-12T15:58:40;2.90;;;2.70;;
33327;SDS011;19692;52.998;9.116;2022-09-12T16:01:08;2.80;;;2.60;;
33327;SDS011;19692;52.998;9.116;2022-09-12T16:03:36;3.33;;;3.00;;
33327;SDS011;19692;52.998;9.116;2022-09-12T16:06:03;3.40;;;3.13;;
33327;SDS011;19692;52.998;9.116;2022-09-12T16:08:29;3.10;;;2.90;;
33327;SDS011;19692;52.998;9.116;2022-09-12T16:10:57;4.37;;;3.97;;
33327;SDS011;19692;52.998;9.116;2022-09-12T16:13:27;4.37;;;3.00;;
33327;SDS011;19692;52.998;9.116;2022-09-12T16:15:55;3.03;;;2.73;;
33327;SDS011;19692;52.998;9.116;2022-09-12T16:18:22;4.03;;;2.93;;
33327;SDS011;19692;52.998;9.116;2022-09-12T16:20:52;3.20;;;2.90;;
33327;SDS011;19692;52.998;9.116;2022-09-12T16:23:19;4.83;;;2.93;;
33327;SDS011;19692;52.998;9.116;2022-09-12T16:25:45;4.23;;;3.07;;
33327;SDS011;19692;52.998;9.116;2022-09-12T16:28:20;4.03;;;3.00;;
33327;SDS011;19692;52.998;9.116;2022-09-12T16:30:53;3.70;;;2.90;;
33327;SDS011;19692;52.998;9.116;2022-09-12T16:33:23;3.70;;;3.17;;
33327;SDS011;19692;52.998;9.116;2022-09-12T16:35:50;3.43;;;3.20;;
33327;SDS011;19692;52.998;9.116;2022-09-12T16:38:19;3.37;;;3.10;;
33327;SDS011;19692;52.998;9.116;2022-09-12T16:40:47;3.87;;;3.20;;
33327;SDS011;19692;52.998;9.116;2022-09-12T16:43:13;3.47;;;3.03;;
33327;SDS011;19692;52.998;9.116;2022-09-12T16:45:43;9.17;;;3.87;;
33327;SDS011;19692;52.998;9.116;2022-09-12T16:48:09;5.07;;;3.13;;
33327;SDS011;19692;52.998;9.116;2022-09-12T16:50:34;2.97;;;2.77;;
33327;SDS011;19692;52.998;9.116;2022-09-12T16:53:00;3.97;;;2.87;;
33327;SDS011;19692;52.998;9.116;2022-09-12T16:55:26;3.47;;;2.80;;
33327;SDS011;19692;52.998;9.116;2022-09-12T16:57:53;3.20;;;2.90;;
33327;SDS011;19692;52.998;9.116;2022-09-12T17:00:19;2.93;;;2.73;;
33327;SDS011;19692;52.998;9.116;2022-09-12T17:02:45;4.07;;;2.97;;
33327;SDS011;19692;52.998;9.116;2022-09-12T17:05:11;3.57;;;3.10;;
33327;SDS011;19692;52.998;9.116;2022-09-12T17:07:39;5.50;;;4.73;;
33327;SDS011;19692;52.998;9.116;2022-09-12T17:10:06;4.23;;;3.20;;
33327;SDS011;19692;52.998;9.116;2022-09-12T17:12:32;3.40;;;3.00;;
33327;SDS011;19692;52.998;9.116;2022-09-12T17:14:58;3.60;;;3.00;;
33327;SDS011;19692;52.998;9.116;2022-09-12T17:17:24;3.60;;;3.20;;
33327;SDS011;19692;52.998;9.116;2022-09-12T17:19:50;3.37;;;3.07;;
33327;SDS011;19692;52.998;9.116;2022-09-12T17:22:17;3.77;;;3.10;;
33327;SDS011;19692;52.998;9.116;2022-09-12T17:24:43;4.63;;;3.10;;
33327;SDS011;19692;52.998;9.116;2022-09-12T17:27:08;3.80;;;3.23;;
33327;SDS011;19692;52.998;9.116;2022-09-12T17:29:34;5.07;;;3.50;;
33327;SDS011;19692;52.998;9.116;2022-09-12T17:32:01;5.53;;;3.30;;
33327;SDS011;19692;52.998;9.116;2022-09-12T17:34:26;5.37;;;3.10;;
33327;SDS011;19692;52.998;9.116;2022-09-12T17:36:52;4.43;;;3.57;;
33327;SDS011;19692;52.998;9.116;2022-09-12T17:39:18;5.23;;;3.30;;
33327;SDS011;19692;52.998;9.116;2022-09-12T17:41:44;3.60;;;3.30;;
33327;SDS011;19692;52.998;9.116;2022-09-12T17:44:10;3.97;;;3.57;;
33327;SDS011;19692;52.998;9.116;2022-09-12T17:46:38;4.00;;;3.60;;
33327;SDS011;19692;52.998;9.116;2022-09-12T17:49:12;4.27;;;3.70;;
33327;SDS011;19692;52.998;9.116;2022-09-12T17:51:39;4.43;;;4.03;;
33327;SDS011;19692;52.998;9.116;2022-09-12T17:54:11;4.40;;;3.50;;
33327;SDS011;19692;52.998;9.116;2022-09-12T17:56:40;4.80;;;3.97;;
33327;SDS011;19692;52.998;9.116;2022-09-12T17:59:09;4.43;;;4.03;;
33327;SDS011;19692;52.998;9.116;2022-09-12T18:01:39;4.63;;;3.73;;
33327;SDS011;19692;52.998;9.116;2022-09-12T18:04:23;4.03;;;3.57;;
33327;SDS011;19692;52.998;9.116;2022-09-12T18:06:51;4.17;;;3.70;;
33327;SDS011;19692;52.998;9.116;2022-09-12T18:09:17;6.70;;;4.97;;
33327;SDS011;19692;52.998;9.116;2022-09-12T18:11:46;4.10;;;3.70;;
33327;SDS011;19692;52.998;9.116;2022-09-12T18:14:13;4.87;;;4.43;;